Time;durP1;ratioP1;P1;durP2;ratioP2;P2;SDS_P1;SDS_P2;PMS_P1;PMS_P2;Temp;Humidity;BMP_temperature;BMP_pressure;BME280_temperature;BME280_humidity;BME280_pressure;Samples;Min_cycle;Max_cycle;Signal;HPM_P1;HPM_P2
2023/07/22 00:00:13;;;;;;;6.83;6.17;;;16.10;90.70;;;;;;5045006;28;20766;-76
2023/07/22 00:02:42;;;;;;;6.60;6.10;;;16.20;91.00;;;;;;5027583;28;20468;-77
2023/07/22 00:05:12;;;;;;;6.10;5.70;;;16.10;91.20;;;;;;5027395;28;20414;-77
2023/07/22 00:07:40;;;;;;;7.53;6.93;;;16.10;91.50;;;;;;5044800;28;20443;-77
2023/07/22 00:10:09;;;;;;;8.53;6.50;;;15.90;91.80;;;;;;5044871;28;20445;-77
2023/07/22 00:12:36;;;;;;;6.93;6.43;;;15.90;92.00;;;;;;5044555;28;20433;-78
2023/07/22 00:15:03;;;;;;;7.63;7.03;;;15.80;92.30;;;;;;5045360;28;20468;-79
2023/07/22 00:17:30;;;;;;;7.90;6.83;;;15.80;92.40;;;;;;5044469;28;20669;-77
2023/07/22 00:19:58;;;;;;;7.30;6.80;;;15.80;92.30;;;;;;5044554;28;20467;-77
2023/07/22 00:22:26;;;;;;;6.93;6.43;;;15.80;92.10;;;;;;5044660;28;20451;-77
2023/07/22 00:24:53;;;;;;;6.60;6.10;;;15.80;92.10;;;;;;5027479;28;20619;-79
2023/07/22 00:27:20;;;;;;;6.50;6.00;;;15.80;92.20;;;;;;5044320;28;20469;-77
2023/07/22 00:29:47;;;;;;;6.73;6.33;;;15.90;92.30;;;;;;5044405;28;20436;-78
2023/07/22 00:32:14;;;;;;;8.00;7.40;;;15.90;92.60;;;;;;5044494;28;20433;-78
2023/07/22 00:34:41;;;;;;;7.30;6.70;;;15.60;92.60;;;;;;5044372;28;20427;-80
2023/07/22 00:37:08;;;;;;;6.87;6.37;;;15.70;92.30;;;;;;5044292;28;20642;-78
2023/07/22 00:39:36;;;;;;;7.00;6.40;;;15.70;92.70;;;;;;5044214;28;20488;-79
2023/07/22 00:42:03;;;;;;;7.10;6.50;;;15.70;92.40;;;;;;5043867;28;20536;-77
2023/07/22 00:44:30;;;;;;;7.30;6.70;;;15.70;92.50;;;;;;5043891;28;20495;-76
2023/07/22 00:46:58;;;;;;;7.37;6.77;;;15.60;92.60;;;;;;5043900;28;20477;-78
2023/07/22 00:49:27;;;;;;;7.47;6.77;;;15.50;92.60;;;;;;5043519;28;20681;-76
2023/07/22 00:52:00;;;;;;;8.63;7.93;;;15.60;92.80;;;;;;5026476;28;20485;-78
2023/07/22 00:54:27;;;;;;;8.87;8.27;;;15.50;92.80;;;;;;5044048;28;20472;-78
2023/07/22 00:56:56;;;;;;;9.87;8.97;;;15.60;93.00;;;;;;5043864;28;20449;-78
2023/07/22 00:59:24;;;;;;;10.77;9.87;;;15.50;92.90;;;;;;5026033;28;20496;-76
2023/07/22 01:01:51;;;;;;;12.47;9.40;;;15.70;92.50;;;;;;5043510;28;20458;-78
2023/07/22 01:04:20;;;;;;;10.10;9.30;;;15.70;92.20;;;;;;5043709;28;20442;-77
2023/07/22 01:06:49;;;;;;;11.03;9.90;;;15.70;92.50;;;;;;5043360;28;20523;-76
2023/07/22 01:09:16;;;;;;;9.70;8.93;;;15.70;92.70;;;;;;5026203;28;20429;-76
2023/07/22 01:11:46;;;;;;;9.63;8.67;;;15.70;92.60;;;;;;5043152;28;20438;-77
2023/07/22 01:14:13;;;;;;;9.00;8.03;;;15.60;92.70;;;;;;5042973;28;20442;-76
2023/07/22 01:16:40;;;;;;;9.67;8.80;;;15.50;93.10;;;;;;5042145;28;20536;-75
2023/07/22 01:19:09;;;;;;;9.73;8.93;;;15.40;93.20;;;;;;5043635;28;20416;-78
2023/07/22 01:21:37;;;;;;;8.40;7.60;;;15.40;93.10;;;;;;5043561;28;20505;-78
2023/07/22 01:24:04;;;;;;;7.70;7.20;;;15.30;93.30;;;;;;5050725;28;20717;-77
2023/07/22 01:26:31;;;;;;;8.13;7.43;;;15.30;93.50;;;;;;5053606;28;20505;-78
2023/07/22 01:29:05;;;;;;;9.77;8.90;;;15.20;93.50;;;;;;5047208;28;20717;-76
2023/07/22 01:31:36;;;;;;;8.13;7.63;;;15.10;93.50;;;;;;5043465;28;20441;-76
2023/07/22 01:34:04;;;;;;;9.00;7.97;;;15.00;93.70;;;;;;5043327;28;20428;-76
2023/07/22 01:36:30;;;;;;;9.63;8.17;;;15.00;93.70;;;;;;5043172;28;20567;-76
2023/07/22 01:38:58;;;;;;;9.80;9.10;;;14.90;94.00;;;;;;5041967;28;20506;-75
2023/07/22 01:41:24;;;;;;;9.57;8.80;;;14.80;94.20;;;;;;5042875;28;20434;-77
2023/07/22 01:43:52;;;;;;;10.00;9.20;;;14.80;94.20;;;;;;5025289;28;20408;-78
2023/07/22 01:46:18;;;;;;;10.50;9.60;;;14.70;94.50;;;;;;5042743;28;20493;-79
2023/07/22 01:48:46;;;;;;;9.90;9.10;;;14.70;94.60;;;;;;5025719;28;20434;-78
2023/07/22 01:51:13;;;;;;;9.67;8.97;;;14.70;94.80;;;;;;5042509;28;20619;-77
2023/07/22 01:53:40;;;;;;;10.50;9.70;;;14.60;94.90;;;;;;5042249;28;20578;-77
2023/07/22 01:56:07;;;;;;;7.93;7.40;;;14.60;94.80;;;;;;5042354;28;20618;-78
2023/07/22 01:58:34;;;;;;;9.63;8.93;;;14.50;94.70;;;;;;5042640;28;20416;-76
2023/07/22 02:01:01;;;;;;;10.57;9.60;;;14.50;94.80;;;;;;5042287;28;20660;-76
2023/07/22 02:03:28;;;;;;;9.97;9.10;;;14.40;94.90;;;;;;5042462;28;20661;-77
2023/07/22 02:06:03;;;;;;;10.67;9.77;;;14.40;95.10;;;;;;5025324;28;20684;-77
2023/07/22 02:08:30;;;;;;;10.50;9.70;;;14.30;95.20;;;;;;5042817;28;20521;-76
2023/07/22 02:11:03;;;;;;;10.23;9.33;;;14.30;95.20;;;;;;5042340;28;20433;-76
2023/07/22 02:13:33;;;;;;;11.27;10.37;;;14.40;95.20;;;;;;5042270;28;20464;-77
2023/07/22 02:16:01;;;;;;;12.37;11.37;;;14.40;95.00;;;;;;5042434;28;20616;-78
2023/07/22 02:18:28;;;;;;;12.40;11.40;;;14.40;94.90;;;;;;5042538;28;20450;-78
2023/07/22 02:20:56;;;;;;;12.23;11.13;;;14.30;95.10;;;;;;5042433;28;20520;-76
2023/07/22 02:23:24;;;;;;;13.87;12.37;;;14.30;95.20;;;;;;5042196;28;20275;-78
2023/07/22 02:25:52;;;;;;;11.40;10.60;;;14.30;95.30;;;;;;5042153;28;20435;-77
2023/07/22 02:28:21;;;;;;;12.07;11.10;;;14.30;95.20;;;;;;5042350;28;20448;-76
2023/07/22 02:30:50;;;;;;;13.47;12.37;;;14.30;95.30;;;;;;5024942;28;20475;-78
2023/07/22 02:33:17;;;;;;;12.33;11.27;;;14.30;95.30;;;;;;5042388;28;20438;-77
2023/07/22 02:35:44;;;;;;;13.00;12.07;;;14.40;95.60;;;;;;5042378;28;20421;-78
2023/07/22 02:38:12;;;;;;;12.33;10.77;;;14.40;95.30;;;;;;5042441;28;20568;-76
2023/07/22 02:40:38;;;;;;;12.60;11.60;;;14.50;95.20;;;;;;5042200;28;20472;-76
2023/07/22 02:43:06;;;;;;;12.80;11.60;;;14.50;95.00;;;;;;5042529;28;20640;-75
2023/07/22 02:45:34;;;;;;;12.63;11.43;;;14.60;95.00;;;;;;5052344;28;20457;-78
2023/07/22 02:48:01;;;;;;;13.27;12.00;;;14.60;94.90;;;;;;5055634;28;20496;-79
2023/07/22 02:50:29;;;;;;;11.97;11.10;;;14.70;95.00;;;;;;5045670;28;20457;-75
2023/07/22 02:52:56;;;;;;;12.23;11.33;;;14.80;94.70;;;;;;5024820;28;20489;-77
2023/07/22 02:55:23;;;;;;;13.07;11.57;;;14.80;94.60;;;;;;5042232;28;20630;-77
2023/07/22 02:57:50;;;;;;;11.67;10.67;;;14.80;94.50;;;;;;5042461;28;20469;-76
2023/07/22 03:00:25;;;;;;;16.13;11.00;;;14.80;94.40;;;;;;5042259;28;20500;-77
2023/07/22 03:03:00;;;;;;;12.77;11.67;;;14.90;94.20;;;;;;5040899;28;20744;-76
2023/07/22 03:05:28;;;;;;;14.70;12.83;;;14.90;94.20;;;;;;5025337;28;20408;-77
2023/07/22 03:07:56;;;;;;;12.10;11.10;;;14.90;94.30;;;;;;5027947;28;20491;-76
2023/07/22 03:10:25;;;;;;;14.03;11.50;;;14.90;94.70;;;;;;5045604;28;20763;-77
2023/07/22 03:12:55;;;;;;;11.40;10.50;;;14.90;94.20;;;;;;5028479;28;20415;-77
2023/07/22 03:15:25;;;;;;;11.90;11.00;;;14.90;93.80;;;;;;5044694;28;20418;-76
2023/07/22 03:17:55;;;;;;;11.60;10.60;;;15.00;94.00;;;;;;5046350;28;20415;-76
2023/07/22 03:20:24;;;;;;;11.10;10.30;;;15.10;93.90;;;;;;5045621;28;20773;-77
2023/07/22 03:22:51;;;;;;;11.50;10.70;;;14.90;93.80;;;;;;5045865;28;20429;-77
2023/07/22 03:25:21;;;;;;;10.27;9.40;;;15.10;93.80;;;;;;5045950;28;20419;-76
2023/07/22 03:27:48;;;;;;;14.50;13.17;;;15.10;93.40;;;;;;5028339;28;20476;-77
2023/07/22 03:30:17;;;;;;;14.57;13.23;;;15.10;93.50;;;;;;5045559;28;20433;-75
2023/07/22 03:32:47;;;;;;;11.80;10.80;;;15.10;93.70;;;;;;5028099;28;20514;-76
2023/07/22 03:35:15;;;;;;;11.50;10.60;;;15.10;93.70;;;;;;5045669;28;20438;-75
2023/07/22 03:37:42;;;;;;;12.27;11.17;;;15.10;93.70;;;;;;5045427;28;20664;-78
2023/07/22 03:40:19;;;;;;;10.13;9.40;;;15.10;93.50;;;;;;5045399;28;20434;-77
2023/07/22 03:42:50;;;;;;;10.70;9.87;;;15.20;93.40;;;;;;5027789;28;20411;-76
2023/07/22 03:45:21;;;;;;;10.33;9.50;;;15.20;93.10;;;;;;5027574;28;20613;-76
2023/07/22 03:47:59;;;;;;;10.63;9.50;;;15.30;93.10;;;;;;5045061;28;20539;-77
2023/07/22 03:50:27;;;;;;;12.20;11.00;;;15.30;92.90;;;;;;5045250;28;20436;-76
2023/07/22 03:52:55;;;;;;;10.40;9.53;;;15.40;93.00;;;;;;5028649;28;20539;-75
2023/07/22 03:55:22;;;;;;;9.97;9.00;;;15.40;92.80;;;;;;5045905;28;20445;-79
2023/07/22 03:57:49;;;;;;;8.63;8.00;;;15.40;92.90;;;;;;5045956;28;20519;-76
2023/07/22 04:00:17;;;;;;;9.90;9.07;;;15.30;92.80;;;;;;5045663;28;20434;-76
2023/07/22 04:02:44;;;;;;;10.13;9.17;;;15.30;92.90;;;;;;5045633;28;20656;-77
2023/07/22 04:05:11;;;;;;;10.97;10.07;;;15.30;92.90;;;;;;5028505;28;20408;-76
2023/07/22 04:07:38;;;;;;;10.80;9.70;;;15.30;92.90;;;;;;5044623;28;20448;-76
2023/07/22 04:10:06;;;;;;;11.27;10.23;;;15.30;92.80;;;;;;5045467;28;20517;-77
2023/07/22 04:12:33;;;;;;;12.80;9.50;;;15.50;92.60;;;;;;5046243;28;20437;-76
2023/07/22 04:15:00;;;;;;;9.50;8.53;;;15.60;92.50;;;;;;5045386;28;20416;-77
2023/07/22 04:17:28;;;;;;;9.77;8.83;;;15.70;91.40;;;;;;5044859;28;20447;-77
2023/07/22 04:19:56;;;;;;;10.50;9.60;;;16.00;91.60;;;;;;5043909;28;20416;-76
2023/07/22 04:22:23;;;;;;;10.20;8.70;;;15.90;91.30;;;;;;5045360;28;20492;-76
2023/07/22 04:24:50;;;;;;;9.57;8.10;;;15.90;91.10;;;;;;5045154;28;20440;-78
2023/07/22 04:27:20;;;;;;;10.43;8.43;;;16.00;91.10;;;;;;5027835;28;20508;-78
2023/07/22 04:29:47;;;;;;;8.50;7.70;;;16.10;91.10;;;;;;5044938;28;20439;-78
2023/07/22 04:32:14;;;;;;;7.43;6.73;;;16.20;90.00;;;;;;5044011;28;20412;-78
2023/07/22 04:34:41;;;;;;;7.57;6.87;;;16.40;90.40;;;;;;5045283;28;20500;-76
2023/07/22 04:37:08;;;;;;;7.17;6.57;;;16.50;90.10;;;;;;5044607;28;20438;-76
2023/07/22 04:39:37;;;;;;;7.90;7.20;;;16.60;89.50;;;;;;5044673;28;20474;-77
2023/07/22 04:42:04;;;;;;;6.50;6.00;;;16.80;87.90;;;;;;5045145;28;20480;-79
2023/07/22 04:44:31;;;;;;;7.20;6.47;;;16.70;88.30;;;;;;5045013;28;20436;-79
2023/07/22 04:46:59;;;;;;;7.50;6.07;;;17.10;87.10;;;;;;5045441;28;20445;-76
2023/07/22 04:49:26;;;;;;;6.50;5.87;;;17.00;87.00;;;;;;5027051;28;20434;-77
2023/07/22 04:51:53;;;;;;;6.87;6.27;;;17.10;85.80;;;;;;5044675;28;20456;-77
2023/07/22 04:54:20;;;;;;;6.17;5.57;;;17.10;85.70;;;;;;5044650;28;20439;-76
2023/07/22 04:56:47;;;;;;;6.07;5.50;;;17.20;85.00;;;;;;5045042;28;20694;-78
2023/07/22 04:59:15;;;;;;;5.70;4.93;;;17.30;86.20;;;;;;5028311;28;20468;-77
2023/07/22 05:01:43;;;;;;;5.57;5.07;;;17.40;83.60;;;;;;5045724;28;20436;-77
2023/07/22 05:04:13;;;;;;;5.20;4.70;;;17.50;83.20;;;;;;5044689;28;20404;-76
2023/07/22 05:06:40;;;;;;;4.80;4.20;;;17.60;83.10;;;;;;5045014;28;20464;-77
2023/07/22 05:09:07;;;;;;;4.10;3.80;;;17.80;82.50;;;;;;5044279;28;20722;-77
2023/07/22 05:11:34;;;;;;;9.13;4.50;;;17.80;81.00;;;;;;5044709;28;20409;-77
2023/07/22 05:14:01;;;;;;;5.00;4.60;;;17.90;81.50;;;;;;5044741;28;20457;-78
2023/07/22 05:16:28;;;;;;;8.03;5.27;;;18.00;80.90;;;;;;5027482;28;20532;-78
2023/07/22 05:18:56;;;;;;;5.23;4.03;;;18.10;79.70;;;;;;5043509;28;20441;-77
2023/07/22 05:21:23;;;;;;;4.43;4.03;;;18.10;79.10;;;;;;5043723;28;20468;-77
2023/07/22 05:23:52;;;;;;;4.50;4.20;;;18.30;78.00;;;;;;5026100;28;20417;-75
2023/07/22 05:26:19;;;;;;;5.70;4.20;;;18.10;77.40;;;;;;5043183;28;20434;-77
2023/07/22 05:28:46;;;;;;;5.13;4.27;;;18.10;77.60;;;;;;5041175;28;20703;-76
2023/07/22 05:31:13;;;;;;;6.53;3.70;;;18.20;77.70;;;;;;5042753;28;20525;-78
2023/07/22 05:33:40;;;;;;;3.97;3.67;;;18.30;77.10;;;;;;5026153;28;20438;-77
2023/07/22 05:36:08;;;;;;;4.10;3.80;;;18.30;76.70;;;;;;5043548;28;20438;-78
2023/07/22 05:38:37;;;;;;;4.90;4.40;;;18.40;76.10;;;;;;5043153;28;20782;-77
2023/07/22 05:41:04;;;;;;;5.00;4.47;;;18.40;75.80;;;;;;5043392;28;20447;-77
2023/07/22 05:43:31;;;;;;;7.30;4.40;;;18.50;75.50;;;;;;5042141;28;20438;-76
2023/07/22 05:45:58;;;;;;;4.50;4.10;;;18.50;74.70;;;;;;5043172;28;20440;-76
2023/07/22 05:48:25;;;;;;;4.37;4.07;;;18.60;75.00;;;;;;5042976;28;20443;-76
2023/07/22 05:50:52;;;;;;;4.07;3.77;;;18.70;73.80;;;;;;5042913;28;20520;-76
2023/07/22 05:53:19;;;;;;;4.53;4.13;;;18.80;74.10;;;;;;5043042;28;20501;-76
2023/07/22 05:55:46;;;;;;;5.07;4.63;;;18.80;74.20;;;;;;5041963;28;20423;-77
2023/07/22 05:58:18;;;;;;;4.27;3.87;;;18.90;72.20;;;;;;5044680;28;20622;-76
2023/07/22 06:00:46;;;;;;;4.80;4.40;;;19.10;72.00;;;;;;5043560;28;20435;-78
2023/07/22 06:03:13;;;;;;;4.47;4.03;;;19.10;72.80;;;;;;5047514;28;20448;-78
2023/07/22 06:05:40;;;;;;;3.70;3.50;;;19.20;72.10;;;;;;5054265;28;20412;-78
2023/07/22 06:08:07;;;;;;;6.33;4.20;;;19.20;70.80;;;;;;5034776;28;20491;-77
2023/07/22 06:10:36;;;;;;;5.17;4.03;;;19.30;70.40;;;;;;5042678;28;20497;-77
2023/07/22 06:13:04;;;;;;;7.80;4.63;;;19.50;71.00;;;;;;5041695;28;20409;-76
2023/07/22 06:15:33;;;;;;;4.60;4.20;;;19.60;70.10;;;;;;5042658;28;20444;-75
2023/07/22 06:18:00;;;;;;;5.40;4.53;;;19.70;70.40;;;;;;5042635;28;20440;-75
2023/07/22 06:20:28;;;;;;;4.20;3.77;;;19.90;69.40;;;;;;5042574;28;20473;-78
2023/07/22 06:22:55;;;;;;;6.90;5.47;;;19.80;68.20;;;;;;5042817;28;20465;-77
2023/07/22 06:25:22;;;;;;;6.40;3.87;;;20.00;68.20;;;;;;5025202;28;20438;-76
2023/07/22 06:27:49;;;;;;;3.70;3.40;;;20.20;66.40;;;;;;5042262;28;20452;-77
2023/07/22 06:30:16;;;;;;;4.40;4.00;;;20.20;66.30;;;;;;5042351;28;20433;-76
2023/07/22 06:32:44;;;;;;;7.33;4.07;;;20.40;66.30;;;;;;5042571;28;20434;-77
2023/07/22 06:35:11;;;;;;;3.87;3.57;;;20.50;64.90;;;;;;5042580;28;20610;-76
2023/07/22 06:37:39;;;;;;;4.70;3.50;;;20.60;64.60;;;;;;5041226;28;20443;-75
2023/07/22 06:40:07;;;;;;;4.83;4.13;;;20.90;64.50;;;;;;5041961;28;20677;-76
2023/07/22 06:42:34;;;;;;;7.93;3.93;;;20.90;63.90;;;;;;5024982;28;20443;-77
2023/07/22 06:45:01;;;;;;;5.27;4.50;;;20.70;64.20;;;;;;5042237;28;20408;-75
2023/07/22 06:47:28;;;;;;;4.17;3.87;;;20.60;64.40;;;;;;5042148;28;20508;-76
2023/07/22 06:49:55;;;;;;;4.57;4.17;;;20.60;64.60;;;;;;5042505;28;20545;-77
2023/07/22 06:52:22;;;;;;;5.70;4.47;;;20.90;63.50;;;;;;5041818;28;20503;-77
2023/07/22 06:54:50;;;;;;;4.00;3.70;;;20.70;63.60;;;;;;5042188;28;20447;-75
2023/07/22 06:57:16;;;;;;;4.50;4.20;;;20.70;62.80;;;;;;5042215;28;20697;-76
2023/07/22 06:59:43;;;;;;;4.33;4.00;;;20.90;62.90;;;;;;5042103;28;20780;-77
2023/07/22 07:02:10;;;;;;;7.37;4.10;;;21.00;62.80;;;;;;5041959;28;20654;-75
2023/07/22 07:04:37;;;;;;;4.63;4.20;;;21.10;62.20;;;;;;5041826;28;20454;-74
2023/07/22 07:07:04;;;;;;;4.17;3.77;;;21.30;61.20;;;;;;5041692;28;20436;-75
2023/07/22 07:09:32;;;;;;;5.20;4.40;;;21.10;62.60;;;;;;5024884;28;20511;-76
2023/07/22 07:11:59;;;;;;;4.50;4.10;;;21.20;62.80;;;;;;5043659;28;20432;-76
2023/07/22 07:14:27;;;;;;;4.83;3.90;;;21.20;61.70;;;;;;5042007;28;20472;-76
2023/07/22 07:16:55;;;;;;;4.50;4.10;;;20.90;64.10;;;;;;5041906;28;20440;-76
2023/07/22 07:19:22;;;;;;;4.90;4.50;;;20.80;63.30;;;;;;5040899;28;20479;-76
2023/07/22 07:21:49;;;;;;;4.60;4.20;;;20.90;62.90;;;;;;5041370;28;20415;-77
2023/07/22 07:24:16;;;;;;;4.77;4.37;;;20.90;62.60;;;;;;5041458;28;20409;-76
2023/07/22 07:26:44;;;;;;;4.97;4.57;;;21.20;62.90;;;;;;5041930;28;20455;-76
2023/07/22 07:29:12;;;;;;;4.40;4.00;;;21.60;60.90;;;;;;5041369;28;20477;-80
2023/07/22 07:31:46;;;;;;;4.27;3.87;;;22.00;58.40;;;;;;5025248;28;20416;-76
2023/07/22 07:34:13;;;;;;;4.10;3.70;;;22.90;56.20;;;;;;5041392;28;20440;-77
2023/07/22 07:36:40;;;;;;;3.83;3.53;;;23.90;53.90;;;;;;5039833;28;20532;-75
2023/07/22 07:39:07;;;;;;;3.57;3.23;;;24.30;51.30;;;;;;5041371;28;20457;-76
2023/07/22 07:41:34;;;;;;;4.90;3.50;;;24.30;51.30;;;;;;5041348;28;20429;-77
2023/07/22 07:44:01;;;;;;;4.43;3.40;;;24.90;49.90;;;;;;5041093;28;20441;-76
2023/07/22 07:46:29;;;;;;;4.10;3.80;;;25.50;48.10;;;;;;5040308;28;20438;-76
2023/07/22 07:49:00;;;;;;;5.50;3.50;;;25.60;48.50;;;;;;5041405;28;20480;-77
2023/07/22 07:51:30;;;;;;;3.43;3.23;;;26.00;47.10;;;;;;5040834;28;20450;-76
2023/07/22 07:53:58;;;;;;;5.03;3.30;;;27.20;46.00;;;;;;5026191;28;20522;-77
2023/07/22 07:56:25;;;;;;;6.80;3.30;;;26.90;44.40;;;;;;5045201;28;20434;-77
2023/07/22 07:58:53;;;;;;;3.97;3.53;;;25.90;45.20;;;;;;5045168;28;20509;-77
2023/07/22 08:01:21;;;;;;;3.37;3.17;;;25.80;47.40;;;;;;5044144;28;20461;-76
2023/07/22 08:03:48;;;;;;;3.73;3.40;;;26.00;46.30;;;;;;5045672;28;20631;-75
2023/07/22 08:06:15;;;;;;;4.80;3.90;;;25.90;45.90;;;;;;5044740;28;20440;-76
2023/07/22 08:08:45;;;;;;;4.30;3.90;;;25.40;46.60;;;;;;5044890;28;20457;-77
2023/07/22 08:11:14;;;;;;;3.80;3.40;;;25.70;46.40;;;;;;5044442;28;20663;-75
2023/07/22 08:13:43;;;;;;;9.70;4.00;;;26.00;45.40;;;;;;5027080;28;20646;-79
2023/07/22 08:16:13;;;;;;;5.57;3.37;;;26.40;45.40;;;;;;5044511;28;20821;-77
2023/07/22 08:18:40;;;;;;;3.27;2.90;;;26.20;45.40;;;;;;5044375;28;20444;-76
2023/07/22 08:21:08;;;;;;;6.73;3.77;;;25.70;45.70;;;;;;5044652;28;20449;-75
2023/07/22 08:23:36;;;;;;;4.73;3.40;;;24.90;47.90;;;;;;5044269;28;20468;-75
2023/07/22 08:26:07;;;;;;;3.43;3.13;;;25.70;48.30;;;;;;5044083;28;20441;-77
2023/07/22 08:28:34;;;;;;;3.50;3.20;;;26.40;45.60;;;;;;5043901;28;20473;-78
2023/07/22 08:31:01;;;;;;;4.30;2.70;;;27.30;43.60;;;;;;5043036;28;20477;-76
2023/07/22 08:33:29;;;;;;;4.30;3.90;;;27.10;43.90;;;;;;5026712;28;20790;-75
2023/07/22 08:36:08;;;;;;;5.07;3.20;;;26.30;44.40;;;;;;5028542;28;20440;-77
2023/07/22 08:38:36;;;;;;;3.10;2.70;;;24.90;47.50;;;;;;5043941;28;20443;-78
2023/07/22 08:41:03;;;;;;;3.07;2.77;;;25.50;46.70;;;;;;5043887;28;20437;-77
2023/07/22 08:43:32;;;;;;;4.10;3.03;;;25.40;46.70;;;;;;5044059;28;20762;-76
2023/07/22 08:46:01;;;;;;;4.50;3.13;;;25.60;47.00;;;;;;5043795;28;20505;-75
2023/07/22 08:48:32;;;;;;;4.80;2.67;;;27.20;44.20;;;;;;5043902;28;20716;-75
2023/07/22 08:51:17;;;;;;;4.50;2.60;;;26.90;42.40;;;;;;5043952;28;20585;-76
2023/07/22 08:53:46;;;;;;;2.90;2.57;;;26.80;42.00;;;;;;5043609;28;20453;-74
2023/07/22 08:56:31;;;;;;;2.97;2.77;;;25.80;42.20;;;;;;5043997;28;20421;-75
2023/07/22 08:58:58;;;;;;;3.00;2.40;;;25.30;44.60;;;;;;5043535;28;20635;-80
2023/07/22 09:01:26;;;;;;;2.80;2.47;;;26.00;43.70;;;;;;5043732;28;20505;-75
2023/07/22 09:03:56;;;;;;;2.83;2.53;;;26.30;42.90;;;;;;5043168;28;20412;-77
2023/07/22 09:06:24;;;;;;;3.07;2.60;;;26.20;42.00;;;;;;5043441;28;20430;-77
2023/07/22 09:08:53;;;;;;;3.30;2.90;;;24.60;45.10;;;;;;5043687;28;20477;-75
2023/07/22 09:11:21;;;;;;;3.47;3.00;;;24.50;45.70;;;;;;5043779;28;20437;-76
2023/07/22 09:13:49;;;;;;;3.33;3.03;;;24.50;46.40;;;;;;5044649;28;20650;-76
2023/07/22 09:16:17;;;;;;;3.27;3.00;;;24.90;45.60;;;;;;5051655;28;20425;-79
2023/07/22 09:18:44;;;;;;;4.23;2.93;;;24.80;45.30;;;;;;5056118;28;20441;-77
2023/07/22 09:21:11;;;;;;;3.60;3.30;;;24.80;46.40;;;;;;5048093;28;20434;-78
2023/07/22 09:23:38;;;;;;;3.40;3.20;;;25.40;44.70;;;;;;5043754;28;20750;-75
2023/07/22 09:26:10;;;;;;;3.33;3.03;;;26.00;43.00;;;;;;5043400;28;20445;-76
2023/07/22 09:28:57;;;;;;;2.80;2.60;;;26.70;41.70;;;;;;5041849;28;20474;-76
2023/07/22 09:31:27;;;;;;;3.30;3.00;;;27.80;39.60;;;;;;5043455;28;20504;-76
2023/07/22 09:33:54;;;;;;;5.13;2.97;;;27.30;39.90;;;;;;5025719;28;20441;-76
2023/07/22 09:36:21;;;;;;;3.00;2.77;;;26.60;41.30;;;;;;5042973;28;20505;-76
2023/07/22 09:39:04;;;;;;;3.53;3.33;;;25.70;42.70;;;;;;5043762;28;20419;-77
2023/07/22 09:41:32;;;;;;;6.37;3.50;;;25.10;43.70;;;;;;5042469;28;20453;-78
2023/07/22 09:44:03;;;;;;;7.00;3.90;;;24.80;44.00;;;;;;5041544;28;20513;-74
2023/07/22 09:46:36;;;;;;;3.43;3.13;;;24.80;44.70;;;;;;5042929;28;20437;-78
2023/07/22 09:49:05;;;;;;;4.70;3.70;;;24.90;45.10;;;;;;5025575;28;20470;-77
2023/07/22 09:51:34;;;;;;;5.00;3.60;;;25.00;45.00;;;;;;5024834;28;20412;-77
2023/07/22 09:54:08;;;;;;;3.40;3.10;;;24.70;45.80;;;;;;5042923;28;20431;-76
2023/07/22 09:56:48;;;;;;;3.73;3.47;;;24.50;45.90;;;;;;5042703;28;20531;-76
2023/07/22 09:59:20;;;;;;;4.70;3.13;;;24.50;46.70;;;;;;5025104;28;20700;-75
2023/07/22 10:01:48;;;;;;;3.60;3.30;;;24.80;45.40;;;;;;5024935;28;20426;-75
2023/07/22 10:04:18;;;;;;;4.13;3.73;;;24.50;46.20;;;;;;5025100;28;20419;-74
2023/07/22 10:06:45;;;;;;;6.60;3.83;;;24.30;45.80;;;;;;5041672;28;20465;-77
2023/07/22 10:09:15;;;;;;;4.17;3.53;;;23.80;46.00;;;;;;5042137;28;20619;-78
2023/07/22 10:11:42;;;;;;;4.23;3.93;;;23.60;47.30;;;;;;5042108;28;20455;-76
2023/07/22 10:14:10;;;;;;;6.07;3.80;;;23.60;47.00;;;;;;5042205;28;20707;-77
2023/07/22 10:16:37;;;;;;;4.50;3.43;;;24.10;47.00;;;;;;5041447;28;20468;-76
2023/07/22 10:19:04;;;;;;;5.73;3.47;;;24.50;46.00;;;;;;5042093;28;20702;-75
2023/07/22 10:21:33;;;;;;;3.27;3.07;;;24.50;44.20;;;;;;5024791;28;20484;-78
2023/07/22 10:24:01;;;;;;;3.27;3.07;;;23.80;44.70;;;;;;5042221;28;20505;-76
2023/07/22 10:26:29;;;;;;;3.90;3.60;;;23.70;44.80;;;;;;5042161;28;20472;-74
2023/07/22 10:29:13;;;;;;;3.70;3.40;;;24.10;44.30;;;;;;5041858;28;20476;-76
2023/07/22 10:31:41;;;;;;;3.50;3.23;;;24.10;44.60;;;;;;5042384;28;20441;-76
2023/07/22 10:34:08;;;;;;;3.57;3.27;;;24.20;44.30;;;;;;5042188;28;20503;-77
2023/07/22 10:36:36;;;;;;;3.63;3.20;;;23.90;45.00;;;;;;5041782;28;20485;-77
2023/07/22 10:39:04;;;;;;;3.70;3.40;;;23.40;45.00;;;;;;5041839;28;20641;-74
2023/07/22 10:41:37;;;;;;;3.93;3.53;;;23.10;45.70;;;;;;5042106;28;20429;-75
2023/07/22 10:44:06;;;;;;;3.43;3.13;;;23.30;46.90;;;;;;5024274;28;20414;-75
2023/07/22 10:46:35;;;;;;;3.60;3.40;;;24.00;44.50;;;;;;5041802;28;20408;-76
2023/07/22 10:49:14;;;;;;;4.13;3.73;;;24.50;43.30;;;;;;5041558;28;20448;-75
2023/07/22 10:51:41;;;;;;;4.03;3.73;;;24.60;42.90;;;;;;5024362;28;20466;-79
2023/07/22 10:54:13;;;;;;;4.00;3.60;;;24.30;43.30;;;;;;5042231;28;20845;-76
2023/07/22 10:56:44;;;;;;;4.83;3.63;;;24.10;43.90;;;;;;5042160;28;20443;-74
2023/07/22 10:59:12;;;;;;;3.97;3.50;;;24.30;41.40;;;;;;5041679;28;20586;-76
2023/07/22 11:01:40;;;;;;;3.47;3.17;;;24.70;40.40;;;;;;5041636;28;20450;-75
2023/07/22 11:04:07;;;;;;;3.40;2.90;;;24.70;41.40;;;;;;5041890;28;20440;-76
2023/07/22 11:06:35;;;;;;;8.03;4.10;;;24.50;40.70;;;;;;5041838;28;20900;-75
2023/07/22 11:09:03;;;;;;;3.77;3.47;;;24.00;41.90;;;;;;5042102;28;20473;-75
2023/07/22 11:11:35;;;;;;;4.40;4.10;;;24.00;43.00;;;;;;5040246;28;20789;-76
2023/07/22 11:14:32;;;;;;;3.50;3.03;;;23.80;43.10;;;;;;5041727;28;20492;-75
2023/07/22 11:17:00;;;;;;;5.10;3.67;;;23.80;43.40;;;;;;5024452;28;20458;-77
2023/07/22 11:19:28;;;;;;;3.70;3.40;;;23.70;43.50;;;;;;5041555;28;20450;-78
2023/07/22 11:21:55;;;;;;;3.77;3.47;;;23.50;43.20;;;;;;5042088;28;20466;-76
2023/07/22 11:24:23;;;;;;;3.97;3.67;;;23.80;43.50;;;;;;5042225;28;20416;-76
2023/07/22 11:26:52;;;;;;;3.87;3.10;;;23.90;43.90;;;;;;5024441;28;20433;-76
2023/07/22 11:29:19;;;;;;;4.30;3.67;;;24.20;41.80;;;;;;5044878;28;20603;-76
2023/07/22 11:31:48;;;;;;;3.63;3.33;;;24.40;41.40;;;;;;5043813;28;20758;-76
2023/07/22 11:34:22;;;;;;;3.80;3.50;;;24.60;40.20;;;;;;5045555;28;20751;-76
2023/07/22 11:36:50;;;;;;;7.87;4.10;;;25.10;39.40;;;;;;5028848;28;20407;-75
2023/07/22 11:39:19;;;;;;;6.50;4.13;;;25.20;39.40;;;;;;5045727;28;20734;-76
2023/07/22 11:41:49;;;;;;;3.80;3.50;;;24.80;40.00;;;;;;5045501;28;20447;-76
2023/07/22 11:44:21;;;;;;;4.40;3.40;;;24.40;41.40;;;;;;5045532;28;20483;-76
2023/07/22 11:46:59;;;;;;;3.90;3.70;;;24.10;42.30;;;;;;5045103;28;20458;-77
2023/07/22 11:49:30;;;;;;;3.80;3.50;;;24.30;41.90;;;;;;5027613;28;20681;-76
2023/07/22 11:52:30;;;;;;;4.60;3.90;;;24.10;41.80;;;;;;5027542;28;20536;-75
2023/07/22 11:55:03;;;;;;;4.30;3.90;;;24.60;41.20;;;;;;5001185;28;20478;-78
2023/07/22 11:57:30;;;;;;;4.80;3.63;;;24.30;40.30;;;;;;5045000;28;20435;-75
2023/07/22 11:59:57;;;;;;;3.70;3.40;;;24.30;41.70;;;;;;5044742;28;20465;-77
2023/07/22 12:02:26;;;;;;;4.43;3.67;;;24.30;41.00;;;;;;5027255;28;20492;-77
2023/07/22 12:05:01;;;;;;;3.80;3.47;;;24.40;39.50;;;;;;5027825;28;20544;-76
2023/07/22 12:07:33;;;;;;;4.10;3.80;;;24.30;40.30;;;;;;5027482;28;20417;-76
2023/07/22 12:10:06;;;;;;;4.40;3.63;;;24.40;40.80;;;;;;5045445;28;20474;-76
2023/07/22 12:12:45;;;;;;;3.33;3.03;;;24.50;40.60;;;;;;5028054;28;20429;-74
2023/07/22 12:15:16;;;;;;;4.47;4.00;;;24.40;39.80;;;;;;5045469;28;20433;-79
2023/07/22 12:17:52;;;;;;;3.83;3.53;;;24.20;40.80;;;;;;5045217;28;20460;-76
2023/07/22 12:20:25;;;;;;;4.30;4.00;;;24.40;40.80;;;;;;5046179;28;20440;-76
2023/07/22 12:22:54;;;;;;;4.53;4.00;;;24.40;40.00;;;;;;5027597;28;20449;-77
2023/07/22 12:25:22;;;;;;;3.77;3.47;;;24.80;38.40;;;;;;5048117;28;20469;-79
2023/07/22 12:27:49;;;;;;;4.83;4.23;;;25.30;37.80;;;;;;5045784;28;20501;-74
2023/07/22 12:30:17;;;;;;;3.90;3.30;;;25.00;38.20;;;;;;5054291;28;20504;-78
2023/07/22 12:32:46;;;;;;;3.67;3.37;;;25.20;37.20;;;;;;5054849;28;20433;-76
2023/07/22 12:35:13;;;;;;;4.27;3.90;;;25.10;35.70;;;;;;5027203;28;20666;-79
2023/07/22 12:37:41;;;;;;;3.50;3.10;;;25.10;36.00;;;;;;5026788;28;20437;-77
2023/07/22 12:40:08;;;;;;;8.17;3.50;;;25.40;35.60;;;;;;5042216;28;20479;-77
2023/07/22 12:42:36;;;;;;;3.77;3.47;;;25.50;34.80;;;;;;5043961;28;20655;-77
2023/07/22 12:45:05;;;;;;;3.10;2.90;;;25.70;35.10;;;;;;5044185;28;20504;-75
2023/07/22 12:47:32;;;;;;;4.00;3.17;;;25.90;34.50;;;;;;5044417;28;20703;-75
2023/07/22 12:49:59;;;;;;;3.90;3.60;;;26.00;35.60;;;;;;5043945;28;20860;-76